Time;durP1;ratioP1;P1;durP2;ratioP2;P2;SDS_P1;SDS_P2;PMS_P1;PMS_P2;Temp;Humidity;BMP_temperature;BMP_pressure;BME280_temperature;BME280_humidity;BME280_pressure;Samples;Min_cycle;Max_cycle;Signal;HPM_P1;HPM_P2
2021/10/27 00:02:02;;;;;;;4.90;2.95;;;12.30;99.90;;;;;;4909559;29;20031;-84
2021/10/27 00:04:27;;;;;;;7.50;3.42;;;12.30;99.90;;;;;;4934766;28;20024;-83
2021/10/27 00:06:53;;;;;;;3.75;2.47;;;12.30;99.90;;;;;;4913245;29;20448;-84
2021/10/27 00:09:18;;;;;;;8.55;5.10;;;12.30;99.90;;;;;;4927783;29;20103;-83
2021/10/27 00:11:44;;;;;;;8.55;4.05;;;12.40;99.90;;;;;;4912729;29;20023;-83
2021/10/27 00:14:09;;;;;;;8.23;3.90;;;12.30;99.90;;;;;;4915362;29;20028;-84
2021/10/27 00:16:35;;;;;;;9.07;4.55;;;12.30;99.90;;;;;;4930355;28;20083;-84
2021/10/27 00:19:01;;;;;;;8.95;5.13;;;12.30;99.90;;;;;;4915195;29;20132;-84
2021/10/27 00:21:27;;;;;;;9.07;5.07;;;12.30;99.90;;;;;;4911332;29;20115;-84
2021/10/27 00:23:52;;;;;;;6.28;4.63;;;12.40;99.90;;;;;;4897171;28;20032;-84
2021/10/27 00:26:18;;;;;;;6.07;3.88;;;12.30;99.90;;;;;;4923094;29;20032;-83
2021/10/27 00:28:44;;;;;;;7.38;3.85;;;12.40;99.90;;;;;;4898432;29;20039;-83
2021/10/27 00:31:09;;;;;;;9.52;4.68;;;12.40;99.90;;;;;;4912662;29;20070;-83
2021/10/27 00:33:37;;;;;;;7.53;3.80;;;12.30;99.90;;;;;;4941982;28;20098;-84
2021/10/27 00:36:03;;;;;;;6.30;3.38;;;12.30;99.90;;;;;;4939665;28;20031;-83
2021/10/27 00:38:29;;;;;;;7.90;3.80;;;12.30;99.90;;;;;;4919734;29;20115;-84
2021/10/27 00:40:54;;;;;;;7.35;3.50;;;12.40;99.90;;;;;;4929572;29;20469;-83
2021/10/27 00:43:20;;;;;;;4.78;2.88;;;12.30;99.90;;;;;;4927060;29;20050;-84
2021/10/27 00:45:45;;;;;;;10.70;4.97;;;12.40;99.90;;;;;;4898022;28;20140;-83
2021/10/27 00:48:11;;;;;;;3.55;2.40;;;12.40;99.90;;;;;;4915302;29;20063;-83
2021/10/27 00:50:36;;;;;;;6.57;4.70;;;12.30;99.90;;;;;;4927700;29;20216;-83
2021/10/27 00:53:02;;;;;;;5.75;2.92;;;12.40;99.90;;;;;;4914831;29;20035;-83
2021/10/27 00:55:28;;;;;;;5.47;3.15;;;12.40;99.90;;;;;;4911921;28;20408;-83
2021/10/27 00:57:54;;;;;;;3.20;1.73;;;12.40;99.90;;;;;;4910735;29;20028;-83
2021/10/27 01:00:19;;;;;;;5.95;2.60;;;12.40;99.90;;;;;;4909007;29;20035;-83
2021/10/27 01:02:46;;;;;;;7.10;2.50;;;12.40;99.90;;;;;;4912831;29;20028;-83
2021/10/27 01:05:13;;;;;;;6.60;3.85;;;12.40;99.90;;;;;;4913434;29;20114;-83
2021/10/27 01:07:38;;;;;;;7.22;4.45;;;12.40;99.90;;;;;;4929518;28;20034;-83
2021/10/27 01:10:04;;;;;;;8.85;4.25;;;12.50;99.90;;;;;;4908842;29;20484;-83
2021/10/27 01:12:30;;;;;;;10.57;4.15;;;12.40;99.90;;;;;;4929224;28;20031;-83
2021/10/27 01:14:55;;;;;;;7.90;4.20;;;12.50;99.90;;;;;;4902388;29;20027;-84
2021/10/27 01:17:21;;;;;;;5.80;3.72;;;12.40;99.90;;;;;;4900409;29;20023;-83
2021/10/27 01:19:57;;;;;;;8.02;5.05;;;12.50;99.90;;;;;;4905707;29;20098;-83
2021/10/27 01:22:28;;;;;;;8.40;4.90;;;12.50;99.90;;;;;;4921065;28;20439;-83
2021/10/27 01:24:54;;;;;;;3.67;1.95;;;12.40;99.90;;;;;;4906891;29;20034;-84
2021/10/27 01:27:20;;;;;;;9.13;4.13;;;12.40;99.90;;;;;;4904481;28;20594;-84
2021/10/27 01:29:46;;;;;;;10.75;4.53;;;12.40;99.90;;;;;;4900143;29;20035;-84
2021/10/27 01:32:22;;;;;;;11.57;5.85;;;12.40;99.90;;;;;;4918233;29;20039;-84
2021/10/27 01:34:48;;;;;;;11.70;4.68;;;12.40;99.90;;;;;;4911393;29;20027;-84
2021/10/27 01:37:14;;;;;;;6.55;3.67;;;12.40;99.90;;;;;;4914839;29;20566;-84
2021/10/27 01:39:39;;;;;;;5.97;4.30;;;12.50;99.90;;;;;;4931759;29;20031;-83
2021/10/27 01:42:05;;;;;;;5.68;4.50;;;12.50;99.90;;;;;;4938247;29;20054;-84
2021/10/27 01:44:30;;;;;;;7.45;4.32;;;12.50;99.90;;;;;;4917946;28;20027;-83
2021/10/27 01:46:56;;;;;;;13.05;4.45;;;12.50;99.90;;;;;;4921458;29;20127;-83
2021/10/27 01:49:21;;;;;;;6.97;4.30;;;12.50;99.90;;;;;;4914934;28;20110;-83
2021/10/27 01:51:47;;;;;;;7.50;4.40;;;12.50;99.90;;;;;;4920857;28;20038;-84
2021/10/27 01:54:12;;;;;;;6.38;3.97;;;12.50;99.90;;;;;;4921476;29;20324;-83
2021/10/27 01:56:38;;;;;;;7.22;4.78;;;12.50;99.90;;;;;;4934631;28;20373;-83
2021/10/27 01:59:04;;;;;;;9.02;4.28;;;12.50;99.90;;;;;;4918699;28;20047;-84
2021/10/27 02:01:29;;;;;;;6.72;4.60;;;12.50;99.90;;;;;;4921669;28;20167;-84
2021/10/27 02:03:55;;;;;;;6.03;3.42;;;12.50;99.90;;;;;;4906828;29;20039;-83
2021/10/27 02:06:20;;;;;;;6.88;4.18;;;12.50;99.90;;;;;;4913423;28;20047;-84
2021/10/27 02:08:46;;;;;;;8.63;4.22;;;12.50;99.90;;;;;;4928309;29;20028;-84
2021/10/27 02:11:11;;;;;;;3.05;2.42;;;12.60;99.90;;;;;;4917146;29;20039;-84
2021/10/27 02:13:37;;;;;;;6.20;3.72;;;12.50;99.90;;;;;;4932654;29;20081;-84
2021/10/27 02:16:03;;;;;;;5.55;3.10;;;12.50;99.90;;;;;;4928062;29;20036;-84
2021/10/27 02:18:29;;;;;;;7.00;3.40;;;12.50;99.90;;;;;;4931482;29;20036;-83
2021/10/27 02:20:54;;;;;;;4.50;3.38;;;12.50;99.90;;;;;;4913720;29;20155;-83
2021/10/27 02:23:20;;;;;;;7.50;4.40;;;12.50;99.90;;;;;;4924218;29;20030;-83
2021/10/27 02:25:46;;;;;;;8.40;2.78;;;12.50;99.90;;;;;;4919875;29;20360;-83
2021/10/27 02:28:11;;;;;;;4.35;3.00;;;12.60;99.90;;;;;;4932771;29;20484;-83
2021/10/27 02:30:37;;;;;;;7.13;3.80;;;12.50;99.90;;;;;;4930030;29;20120;-83
2021/10/27 02:33:02;;;;;;;6.10;3.70;;;12.50;99.90;;;;;;4921206;29;20404;-83
2021/10/27 02:35:28;;;;;;;5.32;3.05;;;12.50;99.90;;;;;;4919618;29;20019;-83
2021/10/27 02:37:54;;;;;;;5.88;3.67;;;12.50;99.90;;;;;;4907735;29;20143;-83
2021/10/27 02:40:20;;;;;;;6.78;4.10;;;12.60;99.90;;;;;;4899924;29;20098;-83
2021/10/27 02:42:45;;;;;;;11.85;4.43;;;12.60;99.90;;;;;;4919062;29;20031;-83
2021/10/27 02:45:11;;;;;;;3.95;1.98;;;12.60;99.90;;;;;;4898637;29;20031;-81
2021/10/27 02:47:38;;;;;;;10.40;3.75;;;12.50;99.90;;;;;;4915205;28;20138;-82
2021/10/27 02:50:04;;;;;;;8.35;3.47;;;12.50;99.90;;;;;;4907584;29;20070;-82
2021/10/27 02:52:30;;;;;;;2.90;1.75;;;12.60;99.90;;;;;;4932299;28;20079;-82
2021/10/27 02:54:56;;;;;;;6.72;3.60;;;12.60;99.90;;;;;;4910924;29;20031;-82
2021/10/27 02:57:21;;;;;;;7.93;3.92;;;12.60;99.90;;;;;;4917848;29;20024;-82
2021/10/27 02:59:47;;;;;;;9.00;3.60;;;12.60;99.90;;;;;;4895556;29;20035;-83
2021/10/27 03:02:12;;;;;;;6.05;3.63;;;12.60;99.90;;;;;;4923934;29;20107;-82
2021/10/27 03:04:38;;;;;;;9.65;3.38;;;12.50;99.90;;;;;;4921794;29;20032;-82
2021/10/27 03:07:03;;;;;;;5.30;3.33;;;12.60;99.90;;;;;;4911133;29;20042;-82
2021/10/27 03:09:29;;;;;;;9.85;4.43;;;12.60;99.90;;;;;;4915833;28;20456;-82
2021/10/27 03:11:55;;;;;;;11.32;6.85;;;12.60;99.90;;;;;;4915153;29;20042;-82
2021/10/27 03:14:20;;;;;;;5.53;3.10;;;12.60;99.90;;;;;;4944733;28;20028;-82
2021/10/27 03:16:46;;;;;;;7.70;3.60;;;12.60;99.90;;;;;;4912716;29;20054;-82
2021/10/27 03:19:12;;;;;;;6.28;3.38;;;12.60;99.90;;;;;;4915146;29;20114;-82
2021/10/27 03:21:37;;;;;;;5.97;3.97;;;12.60;99.90;;;;;;4920352;29;20092;-82
2021/10/27 03:24:03;;;;;;;6.55;3.78;;;12.60;99.90;;;;;;4931752;29;20037;-82
2021/10/27 03:26:29;;;;;;;5.88;3.47;;;12.60;99.90;;;;;;4946630;28;20065;-83
2021/10/27 03:28:54;;;;;;;5.50;3.78;;;12.60;99.90;;;;;;4919097;29;20428;-82
2021/10/27 03:31:20;;;;;;;4.38;2.38;;;12.60;99.90;;;;;;4921825;28;20388;-82
2021/10/27 03:33:45;;;;;;;8.27;3.35;;;12.60;99.90;;;;;;4914695;29;20035;-82
2021/10/27 03:36:12;;;;;;;8.65;3.92;;;12.60;99.90;;;;;;4924167;29;20044;-81
2021/10/27 03:38:38;;;;;;;4.50;3.58;;;12.60;99.90;;;;;;4930715;29;20114;-82
2021/10/27 03:41:03;;;;;;;6.63;3.83;;;12.60;99.90;;;;;;4919315;28;20471;-82
2021/10/27 03:43:29;;;;;;;5.70;3.97;;;12.60;99.90;;;;;;4929751;29;20663;-82
2021/10/27 03:45:54;;;;;;;4.10;3.50;;;12.60;99.90;;;;;;4917593;29;20027;-82
2021/10/27 03:48:20;;;;;;;9.30;3.55;;;12.60;99.90;;;;;;4924306;28;20492;-82
2021/10/27 03:50:45;;;;;;;6.93;3.95;;;12.60;99.90;;;;;;4917704;29;20037;-82
2021/10/27 03:53:11;;;;;;;6.25;3.38;;;12.60;99.90;;;;;;4917954;29;20038;-82
2021/10/27 03:55:37;;;;;;;21.70;5.70;;;12.60;99.90;;;;;;4902200;29;20035;-82
2021/10/27 03:58:03;;;;;;;7.57;3.63;;;12.60;99.90;;;;;;4905823;29;20455;-83
2021/10/27 04:00:29;;;;;;;12.25;2.55;;;12.60;99.90;;;;;;4915156;29;20023;-82
2021/10/27 04:02:54;;;;;;;6.95;3.60;;;12.60;99.90;;;;;;4907821;29;20035;-82
2021/10/27 04:05:20;;;;;;;6.55;3.03;;;12.60;99.90;;;;;;4922072;29;20031;-82
2021/10/27 04:07:45;;;;;;;7.20;3.42;;;12.60;99.90;;;;;;4916764;29;20036;-83
2021/10/27 04:10:11;;;;;;;3.30;1.77;;;12.60;99.90;;;;;;4916424;28;20035;-82
2021/10/27 04:12:38;;;;;;;6.47;3.40;;;12.60;99.90;;;;;;4919201;29;20027;-82
2021/10/27 04:15:05;;;;;;;5.47;3.13;;;12.60;99.90;;;;;;4904982;29;20122;-82
2021/10/27 04:17:30;;;;;;;5.90;3.45;;;12.60;99.90;;;;;;4916822;28;20086;-83
2021/10/27 04:19:57;;;;;;;5.00;3.85;;;12.70;99.90;;;;;;4933059;29;20031;-83
2021/10/27 04:22:23;;;;;;;10.00;4.15;;;12.60;99.90;;;;;;4948214;28;20038;-82
2021/10/27 04:24:49;;;;;;;10.15;4.25;;;12.60;99.90;;;;;;4900492;29;20035;-82
2021/10/27 04:27:14;;;;;;;6.18;3.15;;;12.60;99.90;;;;;;4923386;29;20034;-83
2021/10/27 04:29:40;;;;;;;8.90;3.47;;;12.60;99.90;;;;;;4922758;28;20035;-83
2021/10/27 04:32:06;;;;;;;5.80;3.17;;;12.60;99.90;;;;;;4928423;28;20467;-83
2021/10/27 04:34:31;;;;;;;8.77;4.15;;;12.60;99.90;;;;;;4931690;29;20506;-83
2021/10/27 04:36:58;;;;;;;6.18;3.55;;;12.60;99.90;;;;;;4916885;29;20062;-83
2021/10/27 04:39:23;;;;;;;7.38;4.05;;;12.60;99.90;;;;;;4915083;28;20038;-83
2021/10/27 04:41:49;;;;;;;6.85;3.25;;;12.60;99.90;;;;;;4907038;29;20413;-83
2021/10/27 04:44:14;;;;;;;8.95;4.00;;;12.60;99.90;;;;;;4918427;29;20035;-83
2021/10/27 04:46:40;;;;;;;9.82;3.97;;;12.60;99.90;;;;;;4932008;28;20041;-83
2021/10/27 04:49:05;;;;;;;8.52;4.05;;;12.70;99.90;;;;;;4931674;29;20086;-84
2021/10/27 04:51:31;;;;;;;6.78;4.43;;;12.60;99.90;;;;;;4919971;29;20043;-84
2021/10/27 04:53:56;;;;;;;8.30;3.67;;;12.70;99.90;;;;;;4907919;29;20038;-82
2021/10/27 04:56:22;;;;;;;5.68;3.22;;;12.60;99.90;;;;;;4920535;29;20035;-84
2021/10/27 04:58:47;;;;;;;7.75;3.95;;;12.70;99.90;;;;;;4917314;29;20032;-83
2021/10/27 05:01:13;;;;;;;11.02;3.58;;;12.70;99.90;;;;;;4929499;29;20043;-83
2021/10/27 05:03:38;;;;;;;7.82;4.07;;;12.60;99.90;;;;;;4910939;28;20044;-83
2021/10/27 05:06:04;;;;;;;4.97;3.05;;;12.60;99.90;;;;;;4911555;29;20036;-82
2021/10/27 05:08:32;;;;;;;4.88;2.65;;;12.60;99.90;;;;;;4928481;29;20032;-83
2021/10/27 05:11:01;;;;;;;3.92;2.42;;;12.60;99.90;;;;;;4927036;29;20046;-82
2021/10/27 05:13:27;;;;;;;6.25;3.80;;;12.70;99.90;;;;;;4927013;29;20576;-82
2021/10/27 05:15:52;;;;;;;5.90;3.50;;;12.60;99.90;;;;;;4931570;29;20051;-83
2021/10/27 05:18:18;;;;;;;8.15;3.03;;;12.70;99.90;;;;;;4914528;29;20059;-83
2021/10/27 05:20:44;;;;;;;6.07;3.50;;;12.70;99.90;;;;;;4913685;28;20031;-83
2021/10/27 05:23:10;;;;;;;5.05;3.08;;;12.70;99.90;;;;;;4944302;28;20028;-83
2021/10/27 05:25:37;;;;;;;9.52;3.00;;;12.60;99.90;;;;;;4912009;28;20031;-83
2021/10/27 05:28:03;;;;;;;5.82;2.17;;;12.70;99.90;;;;;;4925317;29;20032;-83
2021/10/27 05:30:29;;;;;;;6.60;3.30;;;12.70;99.90;;;;;;4949684;28;20049;-83
2021/10/27 05:32:57;;;;;;;7.85;2.67;;;12.60;99.90;;;;;;4912373;28;20035;-84
2021/10/27 05:35:24;;;;;;;5.80;3.25;;;12.70;99.90;;;;;;4937709;28;20032;-83
2021/10/27 05:37:50;;;;;;;4.75;2.75;;;12.70;99.90;;;;;;4912185;29;20091;-83
2021/10/27 05:40:15;;;;;;;6.70;3.28;;;12.70;99.90;;;;;;4941574;28;20099;-83
2021/10/27 05:42:41;;;;;;;7.18;2.67;;;12.70;99.90;;;;;;4895912;29;20044;-83
2021/10/27 05:45:07;;;;;;;8.50;3.60;;;12.70;99.90;;;;;;4916301;29;20042;-84
2021/10/27 05:47:33;;;;;;;4.32;2.22;;;12.70;99.90;;;;;;4927032;29;20036;-83
2021/10/27 05:55:36;;;;;;;7.22;3.20;;;12.70;99.90;;;;;;4915472;29;20173;-83
2021/10/27 05:58:03;;;;;;;4.88;3.70;;;12.80;99.90;;;;;;4915200;29;20043;-83
2021/10/27 06:00:29;;;;;;;6.43;2.38;;;12.70;99.90;;;;;;4924223;29;20055;-83
2021/10/27 06:02:54;;;;;;;7.05;3.83;;;12.70;99.90;;;;;;4912631;28;20028;-83
2021/10/27 06:05:20;;;;;;;6.53;3.08;;;12.70;99.90;;;;;;4938504;28;20024;-83
2021/10/27 06:07:47;;;;;;;5.30;3.20;;;12.70;99.90;;;;;;4912850;29;20028;-83
2021/10/27 06:10:19;;;;;;;6.57;2.60;;;12.70;99.90;;;;;;4909433;29;20067;-83
2021/10/27 06:12:45;;;;;;;7.35;3.03;;;12.70;99.90;;;;;;4915187;29;20028;-83
2021/10/27 06:15:11;;;;;;;6.20;3.13;;;12.70;99.90;;;;;;4914681;29;20038;-83
2021/10/27 06:17:37;;;;;;;6.38;3.00;;;12.70;99.90;;;;;;4914575;28;20031;-84
2021/10/27 06:20:04;;;;;;;5.85;3.38;;;12.70;99.90;;;;;;4917506;29;20038;-83
2021/10/27 06:22:30;;;;;;;7.25;4.03;;;12.70;99.90;;;;;;4946076;29;20169;-83
2021/10/27 06:24:55;;;;;;;6.75;3.00;;;12.70;99.90;;;;;;4913681;29;20051;-83
2021/10/27 06:27:22;;;;;;;6.13;2.35;;;12.70;99.90;;;;;;4903183;29;20464;-83
2021/10/27 06:29:56;;;;;;;6.97;2.92;;;12.70;99.90;;;;;;4915053;28;20028;-83
2021/10/27 06:35:30;;;;;;;8.25;3.40;;;12.70;99.90;;;;;;4829509;29;20527;-83
2021/10/27 06:38:13;;;;;;;9.65;3.55;;;12.70;99.90;;;;;;4835653;29;20063;-83
2021/10/27 06:48:52;;;;;;;6.85;3.22;;;12.80;99.90;;;;;;4933570;28;20170;-83
2021/10/27 06:51:17;;;;;;;4.47;2.42;;;12.80;99.90;;;;;;4944304;28;20126;-82
2021/10/27 06:53:43;;;;;;;5.03;2.08;;;12.80;99.90;;;;;;4899091;28;20023;-82
2021/10/27 06:56:12;;;;;;;5.55;2.80;;;12.80;99.90;;;;;;4917827;28;20058;-82
2021/10/27 07:01:21;;;;;;;4.15;2.13;;;12.80;99.90;;;;;;4923349;29;20040;-83
2021/10/27 07:17:18;;;;;;;6.72;3.25;;;12.90;99.90;;;;;;4918151;29;20047;-84
2021/10/27 07:19:45;;;;;;;6.68;2.40;;;12.90;99.90;;;;;;4922915;29;20432;-82
2021/10/27 07:22:14;;;;;;;5.22;2.47;;;12.90;99.90;;;;;;4943540;28;20060;-82
2021/10/27 07:24:41;;;;;;;6.10;3.17;;;13.10;99.90;;;;;;4921517;28;20115;-83
2021/10/27 07:27:09;;;;;;;6.78;3.20;;;13.00;99.90;;;;;;4918847;29;20046;-83
2021/10/27 07:29:35;;;;;;;5.78;2.92;;;13.00;99.90;;;;;;4929094;29;20058;-83
2021/10/27 07:32:01;;;;;;;7.60;3.25;;;13.00;99.90;;;;;;4902851;29;20477;-83
2021/10/27 07:34:33;;;;;;;4.72;2.63;;;13.10;99.90;;;;;;4935980;28;20067;-83
2021/10/27 07:42:20;;;;;;;7.18;3.50;;;13.10;99.90;;;;;;4933878;29;20032;-83
2021/10/27 07:44:46;;;;;;;8.02;3.33;;;13.10;99.90;;;;;;4918099;29;20036;-83
2021/10/27 07:47:13;;;;;;;4.53;1.70;;;13.10;99.90;;;;;;4920565;29;20075;-82
2021/10/27 07:49:38;;;;;;;6.60;3.10;;;13.10;99.90;;;;;;4933233;29;20040;-82
2021/10/27 07:52:05;;;;;;;6.22;3.75;;;13.10;99.90;;;;;;4916453;29;20040;-82
2021/10/27 07:54:30;;;;;;;5.97;2.80;;;13.10;99.90;;;;;;4928318;29;20059;-82
2021/10/27 07:56:56;;;;;;;9.98;3.05;;;13.10;99.90;;;;;;4916472;29;20040;-83
2021/10/27 07:59:21;;;;;;;8.90;2.53;;;13.20;99.90;;;;;;4928894;29;20036;-83
2021/10/27 08:01:47;;;;;;;7.28;3.35;;;13.20;99.90;;;;;;4903693;28;20036;-82
2021/10/27 08:04:13;;;;;;;5.15;3.10;;;13.20;99.90;;;;;;4945519;28;20044;-82
2021/10/27 08:06:40;;;;;;;10.32;3.80;;;13.20;99.90;;;;;;4931727;29;20071;-83
2021/10/27 08:09:05;;;;;;;6.38;3.03;;;13.20;99.90;;;;;;4914424;29;20031;-82
2021/10/27 08:11:31;;;;;;;7.50;3.28;;;13.20;99.90;;;;;;4930673;29;20464;-82
2021/10/27 08:13:57;;;;;;;6.13;3.50;;;13.30;99.90;;;;;;4914879;28;20036;-82
2021/10/27 08:16:22;;;;;;;8.43;3.60;;;13.20;99.90;;;;;;4926347;29;20122;-83
2021/10/27 08:18:48;;;;;;;4.35;2.30;;;13.20;99.90;;;;;;4917969;29;20068;-82
2021/10/27 08:21:13;;;;;;;8.90;3.75;;;13.40;99.90;;;;;;4896744;29;20032;-82
2021/10/27 08:23:41;;;;;;;8.95;3.03;;;13.30;99.90;;;;;;4930304;29;20123;-82
2021/10/27 08:26:11;;;;;;;10.75;3.78;;;13.20;99.90;;;;;;4939298;28;20527;-83
2021/10/27 08:28:50;;;;;;;9.43;3.25;;;13.30;99.90;;;;;;4913817;29;20503;-83
2021/10/27 08:36:19;;;;;;;8.02;2.85;;;13.30;99.90;;;;;;4912853;29;20032;-83
2021/10/27 08:38:45;;;;;;;5.40;2.65;;;13.40;99.90;;;;;;4929397;28;20110;-83
2021/10/27 08:41:12;;;;;;;5.03;1.85;;;13.40;99.90;;;;;;4897691;29;20481;-83
2021/10/27 08:43:41;;;;;;;7.10;2.80;;;13.40;99.90;;;;;;4919123;29;20047;-83
2021/10/27 08:46:07;;;;;;;6.57;2.45;;;13.40;99.90;;;;;;4931129;29;20043;-83
2021/10/27 08:48:34;;;;;;;10.20;3.20;;;13.50;99.90;;;;;;4931978;29;20033;-83
2021/10/27 08:51:02;;;;;;;4.25;2.65;;;13.40;99.90;;;;;;4897354;28;20090;-83
2021/10/27 08:53:28;;;;;;;7.25;3.10;;;13.50;99.90;;;;;;4942894;28;20040;-83
2021/10/27 08:55:55;;;;;;;9.35;2.83;;;13.50;99.90;;;;;;4947481;28;20062;-83
2021/10/27 08:58:31;;;;;;;8.70;2.83;;;13.60;99.90;;;;;;4946732;28;20372;-83
2021/10/27 09:01:09;;;;;;;;;;;13.60;99.90;;;;;;4896392;29;20035;-83
2021/10/27 09:06:47;;;;;;;6.22;3.15;;;13.60;99.90;;;;;;4938236;28;20260;-83
2021/10/27 09:15:19;;;;;;;4.57;2.70;;;13.80;99.90;;;;;;4943446;28;20039;-83
2021/10/27 09:34:35;;;;;;;4.15;2.42;;;13.90;99.90;;;;;;4928029;29;20039;-83
2021/10/27 10:05:19;;;;;;;7.07;3.25;;;14.00;99.90;;;;;;4897099;29;20054;-83
2021/10/27 10:07:45;;;;;;;7.53;2.53;;;14.00;99.90;;;;;;4907530;29;20036;-84
2021/10/27 10:10:11;;;;;;;6.63;3.20;;;14.20;99.90;;;;;;4909173;29;20050;-85
2021/10/27 10:12:50;;;;;;;14.40;3.83;;;14.20;99.90;;;;;;4928317;29;20500;-85
2021/10/27 10:15:20;;;;;;;7.00;3.17;;;14.30;99.90;;;;;;4913550;29;20405;-85
2021/10/27 10:17:46;;;;;;;8.15;4.22;;;14.20;99.90;;;;;;4925679;28;20395;-85
2021/10/27 10:20:12;;;;;;;8.52;3.60;;;14.40;99.90;;;;;;4927328;29;20114;-85
2021/10/27 10:22:39;;;;;;;11.25;3.80;;;14.40;99.90;;;;;;4909948;29;20071;-85
2021/10/27 10:25:30;;;;;;;;;;;;;;;;;;;;;
2021/10/27 10:28:15;;;;;;;5.75;3.13;;;14.60;99.90;;;;;;4915715;29;20489;-85
2021/10/27 10:30:49;;;;;;;7.25;3.65;;;14.60;99.90;;;;;;4902415;29;20049;-85
2021/10/27 10:33:17;;;;;;;6.32;3.13;;;14.80;99.90;;;;;;4912933;29;20054;-85
2021/10/27 10:35:58;;;;;;;8.30;4.28;;;14.90;99.90;;;;;;4929832;29;20031;-85
2021/10/27 11:26:12;;;;;;;8.68;2.17;;;16.20;99.50;;;;;;4911375;28;20484;-85
2021/10/27 11:39:50;;;;;;;3.90;2.45;;;16.90;98.40;;;;;;4940160;28;20085;-85
2021/10/27 11:42:34;;;;;;;5.05;2.47;;;17.00;98.60;;;;;;4899755;29;20083;-86
2021/10/27 11:45:10;;;;;;;3.88;1.88;;;17.20;98.50;;;;;;4932824;28;20094;-84
2021/10/27 11:47:41;;;;;;;4.72;2.13;;;17.40;98.40;;;;;;4905315;28;20039;-85
2021/10/27 11:50:11;;;;;;;6.07;2.35;;;17.50;97.60;;;;;;4898201;29;20128;-86
2021/10/27 11:52:37;;;;;;;5.18;1.90;;;17.50;98.20;;;;;;4945436;28;20042;-85
2021/10/27 11:55:07;;;;;;;3.65;2.10;;;17.60;98.20;;;;;;4916579;28;20039;-85
2021/10/27 11:57:33;;;;;;;4.07;1.52;;;17.70;97.90;;;;;;4947269;28;20027;-84
2021/10/27 11:59:59;;;;;;;5.90;2.08;;;17.90;97.40;;;;;;4914185;29;20063;-85
2021/10/27 12:02:26;;;;;;;6.47;2.42;;;18.10;97.70;;;;;;4916454;28;20356;-86
2021/10/27 12:04:53;;;;;;;4.85;1.80;;;18.40;96.50;;;;;;4901532;29;20036;-85
2021/10/27 12:07:32;;;;;;;5.70;2.05;;;18.40;96.20;;;;;;4897631;29;20080;-85
2021/10/27 12:10:14;;;;;;;9.93;2.20;;;18.50;95.90;;;;;;4899049;29;20036;-85
2021/10/27 12:12:57;;;;;;;7.13;2.25;;;18.60;96.00;;;;;;4923071;29;20241;-85
2021/10/27 12:18:35;;;;;;;2.40;1.40;;;18.50;96.60;;;;;;4913178;29;20035;-88
2021/10/27 12:21:02;;;;;;;5.35;1.92;;;18.60;96.20;;;;;;4900137;29;20487;-88
2021/10/27 12:23:29;;;;;;;4.70;1.90;;;18.80;95.90;;;;;;4894341;29;20500;-88
2021/10/27 12:26:07;;;;;;;7.05;1.45;;;18.80;95.50;;;;;;4898719;29;20428;-88
2021/10/27 12:28:34;;;;;;;2.40;1.45;;;18.80;95.40;;;;;;4885789;29;20079;-88
2021/10/27 12:31:23;;;;;;;2.58;1.40;;;18.90;95.90;;;;;;4902189;29;20725;-88
2021/10/27 12:33:49;;;;;;;3.95;1.63;;;19.00;95.00;;;;;;4914938;29;20039;-88
2021/10/27 12:36:29;;;;;;;9.63;3.75;;;18.80;95.30;;;;;;4885051;29;20032;-88
2021/10/27 12:39:12;;;;;;;4.93;1.50;;;18.90;95.20;;;;;;4887845;29;20082;-87
2021/10/27 12:41:37;;;;;;;6.22;1.70;;;18.70;95.20;;;;;;4902725;29;20086;-88
2021/10/27 12:44:20;;;;;;;4.68;1.80;;;18.90;95.20;;;;;;4909555;29;20040;-88
2021/10/27 12:46:45;;;;;;;2.67;1.17;;;18.90;94.90;;;;;;4907366;29;20503;-88
2021/10/27 12:49:20;;;;;;;17.42;1.63;;;19.00;94.90;;;;;;4895547;29;20084;-88
2021/10/27 12:51:47;;;;;;;4.72;1.70;;;18.80;94.40;;;;;;4875707;29;20243;-88
2021/10/27 12:54:27;;;;;;;4.57;1.58;;;18.60;94.30;;;;;;4897056;29;20698;-88
2021/10/27 12:57:03;;;;;;;4.85;1.52;;;18.60;95.10;;;;;;4911872;29;20036;-88
2021/10/27 12:59:31;;;;;;;6.93;1.58;;;18.70;95.10;;;;;;4904062;29;20042;-88
2021/10/27 13:02:08;;;;;;;5.38;1.15;;;18.50;95.30;;;;;;4866564;29;20031;-88
2021/10/27 13:04:40;;;;;;;4.88;2.03;;;18.40;96.30;;;;;;4886459;29;20421;-88
2021/10/27 13:07:24;;;;;;;5.30;1.23;;;18.50;95.20;;;;;;4909054;29;20043;-88
2021/10/27 13:10:09;;;;;;;1.60;0.85;;;18.70;95.70;;;;;;4932639;29;20033;-87
2021/10/27 13:12:58;;;;;;;5.18;1.35;;;18.70;95.40;;;;;;4907775;29;20047;-88
2021/10/27 13:15:39;;;;;;;4.70;1.90;;;18.70;95.00;;;;;;4900616;28;20035;-87
2021/10/27 13:18:33;;;;;;;8.02;1.63;;;18.80;94.80;;;;;;4911649;29;20063;-88
2021/10/27 13:21:21;;;;;;;3.20;0.68;;;18.80;94.80;;;;;;4867236;29;20098;-88
2021/10/27 13:31:56;;;;;;;4.30;1.33;;;18.80;94.60;;;;;;4921141;29;20467;-87
2021/10/27 13:34:23;;;;;;;4.68;1.52;;;18.90;95.30;;;;;;4902130;29;20480;-87
2021/10/27 13:36:49;;;;;;;4.97;1.60;;;18.80;96.20;;;;;;4900970;29;20034;-87
2021/10/27 13:39:15;;;;;;;2.67;1.40;;;18.80;94.70;;;;;;4942021;29;20377;-87
2021/10/27 13:41:43;;;;;;;7.32;1.65;;;18.70;94.50;;;;;;4897833;28;20027;-86
2021/10/27 13:44:14;;;;;;;4.85;1.27;;;18.60;95.20;;;;;;4917093;29;20054;-87
2021/10/27 13:46:55;;;;;;;4.03;1.73;;;18.70;95.40;;;;;;4932839;29;20046;-87
2021/10/27 14:08:49;;;;;;;6.10;1.60;;;18.20;95.00;;;;;;4907128;29;20127;-87
2021/10/27 14:11:35;;;;;;;2.42;1.10;;;18.30;95.00;;;;;;4908143;29;20523;-87
2021/10/27 14:14:10;;;;;;;1.58;1.15;;;18.30;95.10;;;;;;4922785;28;20160;-86
2021/10/27 14:41:37;;;;;;;6.30;1.42;;;18.00;95.20;;;;;;4920010;28;20066;-87
2021/10/27 15:19:53;;;;;;;3.65;1.10;;;17.40;96.40;;;;;;4918888;29;20030;-84
2021/10/27 15:22:39;;;;;;;3.47;1.42;;;17.30;96.30;;;;;;4904082;29;20031;-84
2021/10/27 15:27:59;;;;;;;4.90;1.20;;;17.20;96.50;;;;;;4930204;28;20477;-84
2021/10/27 15:30:34;;;;;;;4.20;1.38;;;17.10;96.50;;;;;;4922709;29;20042;-84
2021/10/27 15:33:21;;;;;;;4.53;1.40;;;17.10;96.70;;;;;;4917723;29;20046;-84
2021/10/27 15:43:58;;;;;;;6.55;1.92;;;16.80;96.80;;;;;;4936244;29;20154;-84
2021/10/27 15:51:46;;;;;;;5.25;1.88;;;16.70;96.90;;;;;;4921630;28;20471;-84
2021/10/27 15:54:13;;;;;;;4.72;1.67;;;16.60;97.10;;;;;;4917639;29;20039;-83
2021/10/27 15:56:39;;;;;;;2.85;1.10;;;16.60;97.10;;;;;;4933123;29;20310;-84
2021/10/27 15:59:05;;;;;;;6.88;1.98;;;16.50;97.20;;;;;;4919224;29;20032;-84
2021/10/27 16:01:31;;;;;;;8.60;1.77;;;16.50;97.30;;;;;;4928022;28;20028;-84
2021/10/27 16:03:56;;;;;;;4.53;1.85;;;16.30;97.40;;;;;;4919058;29;20031;-84
2021/10/27 16:06:24;;;;;;;4.97;1.70;;;16.30;97.60;;;;;;4926032;29;20032;-84
2021/10/27 16:08:53;;;;;;;5.05;1.55;;;16.30;97.60;;;;;;4900684;28;20077;-84
2021/10/27 16:11:19;;;;;;;6.10;1.88;;;16.20;97.70;;;;;;4915846;29;20043;-84
2021/10/27 16:13:44;;;;;;;3.47;1.65;;;16.10;97.70;;;;;;4930283;29;20039;-84
2021/10/27 16:16:12;;;;;;;3.38;2.10;;;16.00;97.80;;;;;;4914217;29;20434;-84
2021/10/27 16:18:37;;;;;;;8.57;2.00;;;16.00;97.70;;;;;;4934310;29;20039;-84
2021/10/27 16:21:03;;;;;;;6.18;2.42;;;15.90;97.90;;;;;;4911720;29;20028;-84
2021/10/27 16:23:29;;;;;;;2.72;2.00;;;15.80;97.70;;;;;;4942613;28;20028;-84
2021/10/27 16:25:55;;;;;;;4.28;1.73;;;15.70;98.10;;;;;;4918301;29;20042;-83
2021/10/27 16:28:21;;;;;;;6.80;1.77;;;15.70;98.30;;;;;;4913449;29;20024;-83
2021/10/27 16:30:47;;;;;;;8.70;2.55;;;15.60;98.20;;;;;;4913327;28;20036;-83
2021/10/27 16:33:14;;;;;;;4.25;2.00;;;15.50;98.30;;;;;;4935081;28;20047;-83
2021/10/27 16:35:40;;;;;;;8.50;2.38;;;15.50;98.30;;;;;;4913679;29;20027;-83
2021/10/27 16:38:05;;;;;;;4.43;1.95;;;15.40;98.40;;;;;;4912021;29;20054;-83
2021/10/27 16:40:31;;;;;;;6.65;2.78;;;15.30;98.50;;;;;;4941780;28;20025;-83
2021/10/27 16:42:57;;;;;;;5.50;2.08;;;15.40;98.60;;;;;;4942587;28;20040;-83
2021/10/27 16:45:22;;;;;;;4.60;1.90;;;15.30;98.80;;;;;;4945381;29;20119;-83
2021/10/27 16:47:48;;;;;;;3.58;2.03;;;15.20;98.50;;;;;;4900260;29;20567;-83
2021/10/27 16:50:15;;;;;;;5.28;2.17;;;15.20;98.90;;;;;;4926875;29;20469;-83
2021/10/27 16:52:41;;;;;;;6.32;2.20;;;15.20;99.00;;;;;;4929871;29;20159;-84
2021/10/27 16:55:07;;;;;;;5.15;2.15;;;15.20;98.90;;;;;;4906801;29;20393;-83
2021/10/27 16:57:34;;;;;;;5.65;2.15;;;15.10;98.90;;;;;;4942824;28;20067;-83
2021/10/27 17:00:00;;;;;;;5.13;2.10;;;15.00;98.90;;;;;;4916929;29;20043;-83
2021/10/27 17:02:26;;;;;;;8.73;2.95;;;15.00;99.10;;;;;;4931470;29;20051;-83
2021/10/27 17:04:51;;;;;;;7.05;3.05;;;14.90;99.10;;;;;;4926427;29;20489;-83
2021/10/27 17:07:17;;;;;;;9.07;2.72;;;14.90;99.10;;;;;;4945635;28;20055;-83
2021/10/27 17:09:43;;;;;;;5.00;2.05;;;14.70;99.30;;;;;;4928343;29;20032;-83
2021/10/27 17:12:08;;;;;;;9.73;2.38;;;14.60;99.50;;;;;;4913442;29;20143;-83
2021/10/27 17:14:35;;;;;;;8.77;2.38;;;14.50;99.40;;;;;;4943129;29;20408;-84
2021/10/27 17:17:04;;;;;;;3.92;2.40;;;14.40;99.60;;;;;;4928212;29;20461;-83